createdAt,value
2022-10-30T00:01:56.979Z,414.10
2022-10-30T00:06:56.133Z,393.90
2022-10-30T00:11:55.452Z,394.90
2022-10-30T00:16:56.749Z,394.40
2022-10-30T00:21:54.059Z,440.40
2022-10-30T00:26:53.348Z,388.50
2022-10-30T00:31:52.678Z,435.70
2022-10-30T00:36:51.985Z,432.00
2022-10-30T00:41:51.310Z,423.90
2022-10-30T00:46:51.629Z,434.60
2022-10-30T00:51:49.938Z,415.00
2022-10-30T00:56:49.254Z,411.40
2022-10-30T01:01:48.648Z,410.90
2022-10-30T01:06:48.816Z,433.70
2022-10-30T01:11:48.116Z,418.30
2022-10-30T01:16:46.385Z,424.90
2022-10-30T01:21:48.709Z,431.50
2022-10-30T01:26:45.007Z,411.50
2022-10-30T01:31:44.322Z,405.20
2022-10-30T01:36:45.638Z,447.50
2022-10-30T01:41:42.923Z,416.70
2022-10-30T01:46:44.208Z,408.50
2022-10-30T01:51:41.507Z,399.00
2022-10-30T01:56:41.899Z,464.60
2022-10-30T02:01:41.142Z,455.70
2022-10-30T02:06:41.273Z,433.80
2022-10-30T02:11:40.552Z,428.00
2022-10-30T02:16:37.874Z,421.40
2022-10-30T02:21:37.217Z,421.10
2022-10-30T02:26:36.329Z,421.10
2022-10-30T02:31:38.666Z,421.20
2022-10-30T02:36:34.956Z,410.50
2022-10-30T02:41:34.277Z,420.90
2022-10-30T02:46:33.607Z,417.10
2022-10-30T02:51:33.935Z,401.60
2022-10-30T02:56:32.257Z,388.50
2022-10-30T03:01:31.667Z,420.00
2022-10-30T03:06:30.881Z,428.80
2022-10-30T03:11:30.007Z,418.40
2022-10-30T03:16:29.356Z,398.50
2022-10-30T03:21:29.459Z,388.90
2022-10-30T03:26:27.796Z,418.00
2022-10-30T03:31:27.122Z,381.00
2022-10-30T03:36:27.458Z,429.70
2022-10-30T03:41:26.764Z,413.40
2022-10-30T03:46:25.053Z,394.50
2022-10-30T03:51:25.380Z,419.00
2022-10-30T03:56:24.702Z,420.50
2022-10-30T04:01:23.083Z,437.80
2022-10-30T04:06:23.264Z,409.00
2022-10-30T04:11:21.588Z,386.00
2022-10-30T04:16:21.884Z,414.20
2022-10-30T04:21:22.165Z,421.80
2022-10-30T04:26:19.499Z,413.20
2022-10-30T04:31:17.757Z,408.70
2022-10-30T04:36:18.086Z,411.10
2022-10-30T04:41:18.395Z,416.30
2022-10-30T04:46:16.736Z,428.70
2022-10-30T04:51:15.893Z,402.10
2022-10-30T04:56:15.010Z,418.00
2022-10-30T05:01:15.447Z,428.80
2022-10-30T05:06:13.632Z,400.60
2022-10-30T05:11:13.934Z,432.30
2022-10-30T05:16:12.234Z,466.90
2022-10-30T05:21:11.545Z,439.00
2022-10-30T05:26:10.851Z,430.40
2022-10-30T05:31:12.172Z,408.90
2022-10-30T05:36:09.469Z,474.10
2022-10-30T05:41:08.781Z,428.10
2022-10-30T05:46:08.065Z,430.70
2022-10-30T05:51:09.376Z,422.70
2022-10-30T05:56:06.657Z,355.60
2022-10-30T06:01:06.965Z,413.80
2022-10-30T06:06:06.283Z,419.70
2022-10-30T06:11:04.591Z,410.50
2022-10-30T06:16:03.874Z,402.40
2022-10-30T06:21:03.186Z,401.50
2022-10-30T06:26:03.519Z,405.70
2022-10-30T06:31:01.829Z,390.00
2022-10-30T06:36:01.146Z,424.20
2022-10-30T06:41:00.450Z,417.60
2022-10-30T06:46:00.962Z,388.60
2022-10-30T06:50:59.915Z,398.40
2022-10-30T06:55:59.223Z,387.40
2022-10-30T07:00:57.553Z,391.10
2022-10-30T07:05:56.865Z,394.40
2022-10-30T07:10:57.184Z,407.80
2022-10-30T07:15:55.508Z,423.10
2022-10-30T07:20:55.804Z,398.90
2022-10-30T07:25:55.555Z,425.10
2022-10-30T07:30:53.412Z,369.30
2022-10-30T07:35:53.698Z,390.20
2022-10-30T07:40:52.977Z,408.70
2022-10-30T07:45:51.248Z,415.40
2022-10-30T07:50:50.436Z,442.30
2022-10-30T07:55:50.709Z,403.30
2022-10-30T08:00:49.022Z,412.30
2022-10-30T08:05:48.144Z,418.50
2022-10-30T08:10:49.473Z,424.30
2022-10-30T08:15:48.809Z,412.60
2022-10-30T08:25:46.122Z,425.70
2022-10-30T08:30:45.455Z,410.20
2022-10-30T08:35:45.765Z,420.30
2022-10-30T08:40:43.102Z,424.40
2022-10-30T08:45:42.246Z,413.10
2022-10-30T08:50:42.368Z,426.90
2022-10-30T08:55:40.710Z,406.10
2022-10-30T09:00:41.054Z,426.50
2022-10-30T09:05:40.379Z,432.80
2022-10-30T09:10:38.670Z,409.80
2022-10-30T09:15:40.003Z,378.00
2022-10-30T09:20:37.328Z,405.30
2022-10-30T09:25:37.682Z,360.10
2022-10-30T09:30:35.780Z,248.60
2022-10-30T09:35:35.085Z,366.00
2022-10-30T09:40:34.429Z,488.30
2022-10-30T09:45:34.579Z,435.60
2022-10-30T09:50:37.195Z,415.30
2022-10-30T09:55:32.906Z,416.10
2022-10-30T10:00:31.249Z,389.10
2022-10-30T10:05:32.590Z,393.10
2022-10-30T10:10:30.926Z,390.90
2022-10-30T10:15:29.242Z,386.20
2022-10-30T10:20:29.364Z,384.90
2022-10-30T10:25:28.724Z,384.90
2022-10-30T10:30:27.015Z,384.90
2022-10-30T10:35:26.344Z,384.90
2022-10-30T10:40:32.577Z,384.90
2022-10-30T10:45:25.813Z,384.90
2022-10-30T10:50:24.129Z,384.90
2022-10-30T10:55:24.445Z,384.90
2022-10-30T11:00:24.747Z,384.90
2022-10-30T11:05:21.068Z,384.90
2022-10-30T11:10:22.216Z,384.90
2022-10-30T11:15:21.651Z,384.90
2022-10-30T11:20:19.778Z,384.90
2022-10-30T11:25:19.902Z,384.90
2022-10-30T11:30:20.366Z,384.90
2022-10-30T11:35:18.491Z,384.90
2022-10-30T11:40:16.785Z,384.90
2022-10-30T11:45:16.164Z,384.90
2022-10-30T11:50:15.295Z,384.90
2022-10-30T11:55:14.591Z,384.90
2022-10-30T12:00:14.939Z,384.90
2022-10-30T12:05:15.041Z,384.90
2022-10-30T12:10:13.340Z,384.90
2022-10-30T12:15:11.662Z,384.90
2022-10-30T12:20:10.984Z,376.90
2022-10-30T12:25:10.417Z,375.50
2022-10-30T12:30:11.581Z,375.50
2022-10-30T12:35:09.682Z,375.50
2022-10-30T12:40:08.012Z,375.50
2022-10-30T12:45:07.284Z,408.50
2022-10-30T12:50:07.608Z,405.50
2022-10-30T12:55:05.865Z,442.60
2022-10-30T13:00:04.190Z,429.30
2022-10-30T13:05:04.296Z,414.60
2022-10-30T13:10:02.614Z,390.80
2022-10-30T13:15:02.938Z,401.10
2022-10-30T13:20:03.269Z,415.90
2022-10-30T13:25:03.933Z,368.60
2022-10-30T13:30:01.830Z,428.40
2022-10-30T13:35:00.133Z,428.40
2022-10-30T13:40:00.410Z,390.80
2022-10-30T13:44:58.687Z,365.30
2022-10-30T13:49:58.983Z,145.20
2022-10-30T13:54:57.314Z,63.60
2022-10-30T13:59:57.613Z,198.70
2022-10-30T14:04:57.978Z,207.10
2022-10-30T14:09:55.067Z,207.10
2022-10-30T14:14:54.365Z,207.10
2022-10-30T14:19:53.769Z,207.10
2022-10-30T14:24:52.850Z,207.10
2022-10-30T14:29:53.145Z,207.10
2022-10-30T14:34:51.401Z,207.10
2022-10-30T14:39:50.788Z,207.10
2022-10-30T14:44:49.878Z,207.10
2022-10-30T14:49:50.209Z,207.10
2022-10-30T14:54:48.514Z,207.10
2022-10-30T14:59:47.797Z,207.10
2022-10-30T15:04:47.113Z,207.10
2022-10-30T15:09:46.477Z,207.10
2022-10-30T15:14:54.067Z,207.10
2022-10-30T15:19:44.860Z,207.10
2022-10-30T15:24:45.205Z,207.10
2022-10-30T15:29:43.328Z,207.10
2022-10-30T15:34:43.659Z,207.10
2022-10-30T15:39:41.958Z,207.10
2022-10-30T15:44:42.257Z,207.10
2022-10-30T15:49:40.551Z,207.10
2022-10-30T15:54:41.755Z,207.10
2022-10-30T15:59:39.922Z,207.10
2022-10-30T16:04:39.252Z,207.10
2022-10-30T16:09:39.588Z,207.10
2022-10-30T16:14:37.609Z,207.10
2022-10-30T16:19:34.780Z,207.10
2022-10-30T16:24:36.219Z,207.10
2022-10-30T16:29:36.320Z,207.10
2022-10-30T16:34:33.522Z,207.10
2022-10-30T16:39:32.739Z,207.10
2022-10-30T16:44:33.171Z,207.10
2022-10-30T16:49:32.178Z,207.10
2022-10-30T16:54:30.446Z,207.10
2022-10-30T16:59:28.674Z,207.10
2022-10-30T17:04:28.955Z,207.10
2022-10-30T17:09:29.306Z,207.10
2022-10-30T17:14:27.310Z,207.10
2022-10-30T17:19:26.648Z,207.10
2022-10-30T17:24:27.094Z,207.10
2022-10-30T17:29:25.441Z,207.10
2022-10-30T17:34:25.352Z,207.10
2022-10-30T17:39:23.888Z,207.10
2022-10-30T17:44:23.803Z,207.10
2022-10-30T17:49:22.209Z,207.10
2022-10-30T17:54:19.249Z,207.10
2022-10-30T17:59:22.749Z,207.10
2022-10-30T18:04:21.521Z,207.10
2022-10-30T18:09:19.919Z,207.10
2022-10-30T18:14:18.182Z,207.10
2022-10-30T18:19:17.385Z,207.10
2022-10-30T18:24:17.945Z,207.10
2022-10-30T18:29:17.097Z,207.10
2022-10-30T18:34:16.304Z,207.10
2022-10-30T18:39:16.418Z,207.10
2022-10-30T18:44:14.687Z,207.10
2022-10-30T18:49:13.036Z,207.10
2022-10-30T18:54:12.120Z,207.10
2022-10-30T18:59:12.185Z,207.10
2022-10-30T19:04:10.595Z,207.10
2022-10-30T19:09:09.630Z,207.10
2022-10-30T19:14:07.813Z,207.10
2022-10-30T19:19:08.308Z,207.10
2022-10-30T19:24:08.074Z,207.10
2022-10-30T19:29:07.704Z,207.10
2022-10-30T19:34:09.979Z,207.10
2022-10-30T19:39:09.271Z,207.10
2022-10-30T19:44:05.343Z,207.10
2022-10-30T19:49:03.461Z,207.10
2022-10-30T19:54:01.695Z,207.10
2022-10-30T19:59:03.088Z,207.10
2022-10-30T20:04:03.191Z,207.10
2022-10-30T20:09:01.524Z,207.10
2022-10-30T20:13:59.729Z,207.10
2022-10-30T20:18:58.707Z,207.10
2022-10-30T20:23:57.896Z,207.10
2022-10-30T20:28:58.039Z,207.10
2022-10-30T20:33:56.529Z,207.10
2022-10-30T20:38:55.535Z,207.10
2022-10-30T20:43:54.657Z,207.10
2022-10-30T20:48:53.920Z,207.10
2022-10-30T20:53:54.131Z,207.10
2022-10-30T20:58:52.311Z,207.10
2022-10-30T21:03:51.801Z,207.10
2022-10-30T21:08:52.953Z,207.10
2022-10-30T21:13:50.789Z,207.10
2022-10-30T21:18:48.967Z,207.10
2022-10-30T21:23:48.422Z,207.10
2022-10-30T21:28:48.666Z,207.10
2022-10-30T21:33:45.686Z,207.10
2022-10-30T21:38:46.876Z,207.10
2022-10-30T21:43:48.384Z,207.10
2022-10-30T21:48:45.388Z,207.10
2022-10-30T21:53:43.561Z,207.10
2022-10-30T21:58:43.755Z,207.10
2022-10-30T22:03:42.924Z,207.10
2022-10-30T22:08:40.136Z,207.10
2022-10-30T22:13:41.331Z,207.10
2022-10-30T22:18:40.539Z,207.10
2022-10-30T22:23:38.725Z,207.10
2022-10-30T22:28:37.911Z,207.10
2022-10-30T22:33:39.137Z,207.10
2022-10-30T22:38:36.296Z,207.10
2022-10-30T22:43:35.502Z,207.10
2022-10-30T22:48:35.695Z,207.10
2022-10-30T22:53:33.878Z,207.10
2022-10-30T22:58:33.066Z,207.10
2022-10-30T23:03:32.365Z,207.10
2022-10-30T23:08:31.539Z,207.10
2022-10-30T23:13:32.720Z,207.10
2022-10-30T23:18:28.863Z,207.10
2022-10-30T23:23:29.023Z,207.10
2022-10-30T23:28:28.253Z,207.10
2022-10-30T23:33:27.438Z,207.10
2022-10-30T23:38:27.620Z,207.10
2022-10-30T23:43:26.814Z,207.10
2022-10-30T23:48:25.006Z,207.10
2022-10-30T23:53:24.201Z,207.10
2022-10-30T23:58:23.390Z,207.10
